Time;durP1;ratioP1;P1;durP2;ratioP2;P2;SDS_P1;SDS_P2;PMS_P1;PMS_P2;Temp;Humidity;BMP_temperature;BMP_pressure;BME280_temperature;BME280_humidity;BME280_pressure;Samples;Min_cycle;Max_cycle;Signal;HPM_P1;HPM_P2
2023/10/17 00:00:28;;;;;;;26.30;12.48;;;2.40;99.90;;;;;;7579675;19;20017;-75
2023/10/17 00:03:01;;;;;;;21.55;11.32;;;2.40;99.90;;;;;;7577296;19;20015;-76
2023/10/17 00:05:33;;;;;;;21.75;12.10;;;2.40;99.90;;;;;;7577738;19;20014;-76
2023/10/17 00:08:09;;;;;;;21.80;11.43;;;2.40;99.90;;;;;;7578247;19;20029;-75
2023/10/17 00:10:44;;;;;;;18.98;11.23;;;2.30;99.90;;;;;;7583633;19;20594;-74
2023/10/17 00:13:38;;;;;;;24.52;13.10;;;2.50;99.90;;;;;;7585887;19;20029;-75
2023/10/17 00:16:11;;;;;;;21.33;11.48;;;2.40;99.90;;;;;;7592839;19;20052;-75
2023/10/17 00:18:44;;;;;;;19.25;10.80;;;2.40;99.90;;;;;;7589257;19;20015;-74
2023/10/17 00:21:22;;;;;;;17.98;11.10;;;2.50;99.90;;;;;;7581834;19;20065;-74
2023/10/17 00:23:55;;;;;;;17.98;10.52;;;2.50;99.90;;;;;;7581271;19;20018;-74
2023/10/17 00:26:27;;;;;;;20.40;12.05;;;2.50;99.90;;;;;;7589798;19;20771;-74
2023/10/17 00:29:04;;;;;;;19.08;11.48;;;2.50;99.90;;;;;;7590188;19;20018;-75
2023/10/17 00:31:37;;;;;;;21.77;11.38;;;2.50;99.90;;;;;;7593839;19;20018;-74
2023/10/17 00:34:13;;;;;;;19.92;11.27;;;2.50;99.90;;;;;;7591993;19;20010;-75
2023/10/17 00:36:49;;;;;;;18.73;10.85;;;2.50;99.90;;;;;;7571047;19;20029;-75
2023/10/17 00:39:32;;;;;;;19.20;11.15;;;2.50;99.90;;;;;;7578237;19;20038;-74
2023/10/17 00:44:43;;;;;;;19.45;11.57;;;2.60;99.90;;;;;;7583446;19;20025;-74
2023/10/17 00:47:18;;;;;;;21.75;12.43;;;2.60;99.90;;;;;;7571579;19;20098;-75
2023/10/17 00:49:51;;;;;;;21.40;11.32;;;2.60;99.90;;;;;;7585841;19;20018;-76
2023/10/17 00:52:32;;;;;;;21.08;11.50;;;2.60;99.90;;;;;;7575222;19;20646;-75
2023/10/17 00:55:05;;;;;;;22.58;12.85;;;2.50;99.90;;;;;;7572277;19;20021;-74
2023/10/17 00:57:37;;;;;;;23.17;11.83;;;2.50;99.90;;;;;;7574990;19;20022;-73
2023/10/17 01:00:23;;;;;;;18.77;11.52;;;2.50;99.90;;;;;;7567860;19;20278;-75
2023/10/17 01:03:01;;;;;;;23.92;11.75;;;2.50;99.90;;;;;;7569889;19;20029;-73
2023/10/17 01:06:13;;;;;;;20.02;11.57;;;2.50;99.90;;;;;;7572579;19;20015;-74
2023/10/17 01:08:46;;;;;;;22.75;12.70;;;2.50;99.90;;;;;;7571667;19;20007;-76
2023/10/17 01:11:20;;;;;;;21.83;11.70;;;2.40;99.90;;;;;;7566562;19;20050;-76
2023/10/17 01:13:53;;;;;;;19.88;11.32;;;2.40;99.90;;;;;;7575740;19;20603;-75
2023/10/17 01:16:25;;;;;;;22.83;12.65;;;2.40;99.90;;;;;;7562880;19;22175;-76
2023/10/17 01:19:04;;;;;;;20.98;12.07;;;2.40;99.90;;;;;;7568634;19;20029;-75
2023/10/17 01:21:36;;;;;;;21.92;12.82;;;2.30;99.90;;;;;;7579464;19;20010;-76
2023/10/17 01:24:09;;;;;;;21.73;12.98;;;2.20;99.90;;;;;;7576166;19;20011;-73
2023/10/17 01:26:45;;;;;;;21.03;12.07;;;2.20;99.90;;;;;;7578065;19;20029;-74
2023/10/17 01:29:18;;;;;;;19.90;11.88;;;2.20;99.90;;;;;;7568972;19;20019;-76
2023/10/17 01:31:52;;;;;;;23.48;12.93;;;2.00;99.90;;;;;;7575581;19;20097;-77
2023/10/17 01:34:24;;;;;;;20.40;12.00;;;2.00;99.90;;;;;;7575891;19;20025;-73
2023/10/17 01:36:57;;;;;;;23.80;11.80;;;2.10;99.90;;;;;;7587329;19;20022;-76
2023/10/17 01:39:29;;;;;;;19.75;12.13;;;2.10;99.90;;;;;;7571619;19;20019;-74
2023/10/17 01:42:02;;;;;;;25.30;12.23;;;2.10;99.90;;;;;;7578030;19;20015;-73
2023/10/17 01:44:34;;;;;;;23.38;11.55;;;2.00;99.90;;;;;;7568839;19;20018;-73
2023/10/17 01:47:07;;;;;;;23.40;12.57;;;2.00;99.90;;;;;;7574906;19;20056;-73
2023/10/17 01:49:40;;;;;;;;;;;2.00;99.90;;;;;;7576421;19;21358;-74
2023/10/17 01:52:13;;;;;;;24.58;12.65;;;1.80;99.90;;;;;;7552014;19;19923;-74
2023/10/17 01:54:48;;;;;;;22.45;11.52;;;1.70;99.90;;;;;;7531737;19;20033;-74
2023/10/17 01:57:21;;;;;;;23.38;12.40;;;1.80;99.90;;;;;;7573083;19;20054;-76
2023/10/17 01:59:53;;;;;;;24.55;13.18;;;1.70;99.90;;;;;;7577024;19;20034;-76
2023/10/17 02:02:26;;;;;;;22.80;12.70;;;1.70;99.90;;;;;;7561168;19;20626;-73
2023/10/17 02:05:02;;;;;;;21.20;11.88;;;1.70;99.90;;;;;;7577946;19;20036;-76
2023/10/17 02:07:34;;;;;;;24.38;12.27;;;1.70;99.90;;;;;;7564946;19;20018;-73
2023/10/17 02:10:10;;;;;;;19.80;11.77;;;1.70;99.90;;;;;;7577873;19;20094;-75
2023/10/17 02:12:47;;;;;;;21.75;11.63;;;1.80;99.90;;;;;;7569009;19;20010;-73
2023/10/17 02:15:20;;;;;;;24.33;12.43;;;1.80;99.90;;;;;;7570360;19;20101;-76
2023/10/17 02:17:57;;;;;;;20.88;11.82;;;1.80;99.90;;;;;;7565030;19;20763;-76
2023/10/17 02:20:34;;;;;;;21.85;11.00;;;1.90;99.90;;;;;;7558575;19;20018;-76
2023/10/17 02:23:12;;;;;;;20.10;11.65;;;2.00;99.90;;;;;;7575451;19;20099;-75
2023/10/17 02:25:46;;;;;;;19.67;11.27;;;1.90;99.90;;;;;;7565245;19;20019;-76
2023/10/17 02:28:18;;;;;;;20.90;11.48;;;1.80;99.90;;;;;;7570630;19;20034;-75
2023/10/17 02:30:50;;;;;;;18.98;11.30;;;1.80;99.90;;;;;;7571023;19;20033;-75
2023/10/17 02:33:28;;;;;;;23.73;11.20;;;1.70;99.90;;;;;;7574501;19;20812;-75
2023/10/17 02:36:09;;;;;;;17.67;10.00;;;1.70;99.90;;;;;;7576058;19;20025;-76
2023/10/17 02:38:46;;;;;;;21.13;10.90;;;1.70;99.90;;;;;;7589070;19;20027;-76
2023/10/17 02:41:18;;;;;;;24.75;12.00;;;1.70;99.90;;;;;;7597091;19;20082;-76
2023/10/17 02:43:54;;;;;;;23.35;11.10;;;1.60;99.90;;;;;;7588509;19;20019;-75
2023/10/17 02:46:27;;;;;;;21.52;10.43;;;1.50;99.90;;;;;;7569295;19;20019;-76
2023/10/17 02:49:00;;;;;;;18.55;11.38;;;1.40;99.90;;;;;;7569033;19;20600;-75
2023/10/17 02:51:33;;;;;;;19.43;10.30;;;1.40;99.90;;;;;;7573422;19;21018;-75
2023/10/17 02:54:09;;;;;;;20.25;11.05;;;1.40;99.90;;;;;;7584487;19;20842;-76
2023/10/17 02:56:53;;;;;;;27.50;13.00;;;1.30;99.90;;;;;;7572009;19;20559;-74
2023/10/17 02:59:27;;;;;;;22.05;12.73;;;1.20;99.90;;;;;;7579699;19;20026;-76
2023/10/17 03:02:00;;;;;;;21.73;12.90;;;1.10;99.90;;;;;;7588195;19;20026;-76
2023/10/17 03:04:33;;;;;;;22.77;11.32;;;0.90;99.90;;;;;;7581717;19;20133;-76
2023/10/17 03:07:07;;;;;;;;;;;1.00;99.90;;;;;;7576237;19;20030;-74
2023/10/17 03:09:43;;;;;;;19.10;10.73;;;0.90;99.90;;;;;;7579401;19;19971;-74
2023/10/17 03:12:19;;;;;;;21.42;11.45;;;0.90;99.90;;;;;;7576203;19;20026;-74
2023/10/17 03:17:32;;;;;;;17.50;9.95;;;1.00;99.90;;;;;;7562682;19;20024;-76
2023/10/17 03:20:08;;;;;;;18.20;10.00;;;1.10;99.90;;;;;;7556362;19;20492;-77
2023/10/17 03:22:40;;;;;;;16.52;8.93;;;1.20;99.90;;;;;;7555343;19;20630;-77
2023/10/17 03:25:19;;;;;;;17.93;10.87;;;1.20;99.90;;;;;;7562410;19;20586;-76
2023/10/17 03:27:55;;;;;;;29.02;17.08;;;1.10;99.90;;;;;;7575807;19;20022;-76
2023/10/17 03:30:27;;;;;;;24.27;12.10;;;1.00;99.90;;;;;;7576184;19;20019;-76
2023/10/17 03:35:36;;;;;;;23.07;11.83;;;0.90;99.90;;;;;;7574847;19;20025;-76
2023/10/17 03:38:10;;;;;;;17.95;10.60;;;0.90;99.90;;;;;;7572765;19;20083;-77
2023/10/17 03:40:52;;;;;;;20.88;10.85;;;1.00;99.90;;;;;;7570072;19;20093;-78
2023/10/17 03:43:28;;;;;;;19.17;10.88;;;1.10;99.90;;;;;;7567703;19;20496;-76
2023/10/17 03:46:04;;;;;;;23.50;10.35;;;1.30;99.90;;;;;;7568292;19;20101;-77
2023/10/17 03:48:37;;;;;;;19.85;10.95;;;1.30;99.90;;;;;;7551261;19;20492;-76
2023/10/17 03:51:10;;;;;;;27.45;12.45;;;1.40;99.90;;;;;;7568482;19;20019;-75
2023/10/17 03:53:46;;;;;;;21.98;11.75;;;1.50;99.90;;;;;;7567328;19;20113;-75
2023/10/17 03:56:26;;;;;;;31.65;13.52;;;1.50;99.90;;;;;;7577153;19;20488;-75
2023/10/17 03:59:18;;;;;;;30.42;14.32;;;1.70;99.90;;;;;;7558521;19;20014;-75
2023/10/17 04:01:52;;;;;;;29.13;14.10;;;1.70;99.90;;;;;;7575247;19;20583;-75
2023/10/17 04:04:35;;;;;;;37.85;16.98;;;1.70;99.90;;;;;;7574893;19;20010;-76
2023/10/17 04:07:09;;;;;;;46.13;17.83;;;1.80;99.90;;;;;;7575166;19;20014;-76
2023/10/17 04:15:25;;;;;;;52.03;20.13;;;2.20;99.90;;;;;;7568479;19;20823;-74
2023/10/17 04:17:58;;;;;;;73.75;20.02;;;2.20;99.90;;;;;;7563646;19;21081;-76
2023/10/17 04:20:36;;;;;;;68.45;22.45;;;2.30;99.90;;;;;;7573082;19;20105;-75
2023/10/17 04:23:21;;;;;;;72.00;22.60;;;2.30;99.90;;;;;;7564606;19;20126;-74
2023/10/17 04:25:56;;;;;;;58.53;23.60;;;2.30;99.90;;;;;;7567996;19;20020;-74
2023/10/17 04:28:28;;;;;;;79.55;23.67;;;2.40;99.90;;;;;;7578815;19;21441;-75
2023/10/17 04:31:01;;;;;;;58.55;22.13;;;2.40;99.90;;;;;;7562936;19;20712;-74
2023/10/17 04:33:36;;;;;;;87.93;25.77;;;2.40;99.90;;;;;;7559381;19;20014;-74
2023/10/17 04:36:09;;;;;;;71.90;24.13;;;2.40;99.90;;;;;;7544271;19;20006;-74
2023/10/17 04:38:46;;;;;;;62.08;22.80;;;2.50;99.90;;;;;;7533833;19;20023;-74
2023/10/17 04:41:40;;;;;;;45.15;21.48;;;2.60;99.90;;;;;;7538992;19;20011;-70
2023/10/17 04:44:16;;;;;;;;;;;2.60;99.90;;;;;;7548607;19;20019;-69
2023/10/17 04:46:50;;;;;;;50.03;21.48;;;2.60;99.90;;;;;;7552244;19;19923;-73
2023/10/17 04:49:24;;;;;;;68.28;23.23;;;2.60;99.90;;;;;;7560619;19;20023;-75
2023/10/17 04:52:06;;;;;;;91.00;24.65;;;2.60;99.90;;;;;;7548965;19;20014;-75
2023/10/17 04:54:39;;;;;;;59.58;23.77;;;2.60;99.90;;;;;;7567356;19;20007;-75
2023/10/17 04:57:16;;;;;;;57.75;24.70;;;2.70;99.90;;;;;;7551584;19;20499;-75
2023/10/17 05:07:34;;;;;;;139.90;33.75;;;2.70;99.90;;;;;;7571761;19;20014;-73
2023/10/17 06:18:48;;;;;;;77.10;30.92;;;3.40;99.90;;;;;;7604877;19;20038;-76
2023/10/17 06:21:35;;;;;;;78.93;31.50;;;3.50;99.90;;;;;;7608822;19;20113;-78
2023/10/17 06:26:58;;;;;;;71.43;29.30;;;3.50;99.90;;;;;;7609394;19;20048;-77
2023/10/17 06:35:22;;;;;;;59.47;26.55;;;3.60;99.90;;;;;;7609014;19;20029;-76
2023/10/17 06:37:59;;;;;;;65.55;24.55;;;3.60;99.90;;;;;;7593663;19;20006;-77
2023/10/17 06:40:44;;;;;;;61.63;26.98;;;3.60;99.90;;;;;;7609979;19;20017;-76
2023/10/17 06:43:27;;;;;;;51.58;25.38;;;3.60;99.90;;;;;;7614390;19;20696;-77
2023/10/17 06:46:12;;;;;;;49.95;24.98;;;3.60;99.90;;;;;;7606679;19;20014;-77
2023/10/17 06:48:54;;;;;;;49.10;23.80;;;3.70;99.90;;;;;;7601009;19;20049;-76
2023/10/17 06:51:36;;;;;;;51.90;26.10;;;3.70;99.90;;;;;;7616244;19;20074;-77
2023/10/17 06:54:13;;;;;;;50.70;25.63;;;3.60;99.90;;;;;;7610677;19;20455;-77
2023/10/17 06:56:45;;;;;;;57.25;25.15;;;3.70;99.90;;;;;;7609652;19;20014;-76
2023/10/17 06:59:24;;;;;;;44.05;24.08;;;3.80;99.90;;;;;;7613631;19;20022;-77
2023/10/17 07:02:10;;;;;;;55.13;26.27;;;3.80;99.90;;;;;;7597122;19;20011;-76
2023/10/17 07:04:43;;;;;;;57.65;28.90;;;3.80;99.90;;;;;;7609609;19;20014;-76
2023/10/17 07:07:18;;;;;;;68.18;29.83;;;3.90;99.90;;;;;;7611641;19;20026;-77
2023/10/17 07:10:07;;;;;;;67.82;29.50;;;3.80;99.90;;;;;;7601833;19;22383;-77
2023/10/17 07:12:39;;;;;;;81.18;31.08;;;3.90;99.90;;;;;;7609295;19;20019;-77
2023/10/17 07:15:25;;;;;;;59.38;28.65;;;3.80;99.90;;;;;;7614684;19;20042;-76
2023/10/17 07:18:43;;;;;;;83.05;33.20;;;3.80;99.90;;;;;;7605453;19;20029;-76
2023/10/17 07:23:48;;;;;;;51.25;26.70;;;3.90;99.90;;;;;;7606280;19;20025;-76
2023/10/17 07:26:38;;;;;;;54.35;24.73;;;4.00;99.90;;;;;;7624474;19;20018;-77
2023/10/17 07:29:12;;;;;;;55.47;25.77;;;4.00;99.90;;;;;;7622394;19;20022;-77
2023/10/17 07:31:47;;;;;;;48.08;26.15;;;4.10;99.90;;;;;;7619959;19;20023;-77
2023/10/17 07:34:23;;;;;;;53.90;26.85;;;4.10;99.90;;;;;;7620362;19;20021;-76
2023/10/17 07:36:58;;;;;;;45.58;23.17;;;4.20;99.90;;;;;;7617164;19;20043;-76
2023/10/17 07:39:37;;;;;;;49.03;24.25;;;4.20;99.90;;;;;;7622274;19;20019;-76
2023/10/17 07:42:23;;;;;;;52.40;25.55;;;4.20;99.90;;;;;;7617886;19;20022;-77
2023/10/17 07:44:57;;;;;;;55.40;25.58;;;4.20;99.90;;;;;;7616373;19;20898;-75
2023/10/17 07:47:33;;;;;;;48.85;24.08;;;4.30;99.90;;;;;;7613579;19;20372;-75
2023/10/17 07:50:12;;;;;;;60.10;27.13;;;4.40;99.90;;;;;;7614041;19;20032;-75
2023/10/17 07:52:49;;;;;;;52.17;24.20;;;4.40;99.90;;;;;;7620334;19;20422;-75
2023/10/17 07:55:34;;;;;;;50.80;26.25;;;4.30;99.90;;;;;;7624925;19;20013;-76
2023/10/17 07:58:06;;;;;;;51.67;25.90;;;4.40;99.90;;;;;;7623953;19;20026;-76
2023/10/17 08:00:39;;;;;;;53.03;24.63;;;4.40;99.90;;;;;;7630987;19;20582;-77
2023/10/17 08:03:14;;;;;;;45.67;24.25;;;4.40;99.90;;;;;;7624275;19;20739;-77
2023/10/17 08:06:05;;;;;;;42.92;23.85;;;4.40;99.90;;;;;;7629699;19;20039;-77
2023/10/17 08:08:44;;;;;;;44.80;22.38;;;4.40;99.90;;;;;;7620231;19;20029;-77
2023/10/17 08:11:26;;;;;;;36.75;21.00;;;4.50;99.90;;;;;;7626674;19;20018;-77
2023/10/17 08:14:08;;;;;;;35.80;19.73;;;4.60;99.90;;;;;;7623189;19;20424;-77
2023/10/17 08:16:42;;;;;;;35.05;19.50;;;4.60;99.90;;;;;;7624055;19;20105;-77
2023/10/17 08:19:29;;;;;;;39.30;21.65;;;4.60;99.90;;;;;;7632032;19;20626;-76
2023/10/17 08:30:17;;;;;;;35.45;20.15;;;4.70;99.90;;;;;;7611306;19;20017;-77
2023/10/17 08:35:38;;;;;;;34.70;21.48;;;4.90;99.90;;;;;;7601422;19;20019;-77
2023/10/17 08:38:12;;;;;;;43.15;21.15;;;4.90;99.90;;;;;;7582178;19;20025;-76
2023/10/17 08:40:49;;;;;;;38.90;20.60;;;5.00;99.90;;;;;;7596463;19;20014;-76
2023/10/17 08:43:22;;;;;;;38.97;21.25;;;5.00;99.90;;;;;;7589699;19;20022;-77
2023/10/17 08:45:55;;;;;;;40.65;20.27;;;5.00;99.90;;;;;;7594713;19;20051;-77
2023/10/17 08:48:30;;;;;;;35.88;19.85;;;4.90;99.90;;;;;;7601018;19;20011;-78
2023/10/17 08:51:06;;;;;;;;;;;4.90;99.90;;;;;;7592664;19;20010;-76
2023/10/17 08:53:42;;;;;;;33.10;19.65;;;5.00;99.90;;;;;;7592817;19;19913;-77
2023/10/17 08:56:14;;;;;;;38.03;20.70;;;4.90;99.90;;;;;;7586369;19;20026;-77
2023/10/17 08:58:47;;;;;;;35.75;19.90;;;5.00;99.90;;;;;;7586176;19;20783;-77
2023/10/17 09:01:20;;;;;;;39.85;22.42;;;5.00;99.90;;;;;;7592471;19;20021;-77
2023/10/17 09:03:56;;;;;;;34.75;21.70;;;5.00;99.90;;;;;;7591381;19;20113;-77
2023/10/17 09:06:29;;;;;;;35.10;19.70;;;5.10;99.90;;;;;;7598380;19;20054;-77
2023/10/17 09:09:17;;;;;;;35.90;20.97;;;5.20;99.90;;;;;;7594720;19;20006;-76
2023/10/17 09:14:44;;;;;;;36.42;20.77;;;5.30;99.90;;;;;;7602867;19;20735;-76
2023/10/17 09:17:16;;;;;;;39.55;21.77;;;5.30;99.90;;;;;;7598872;19;20022;-76
2023/10/17 09:19:52;;;;;;;42.90;23.42;;;5.30;99.90;;;;;;7606513;19;20495;-76
2023/10/17 09:22:24;;;;;;;;;;;5.40;99.90;;;;;;7605809;19;20019;-76
2023/10/17 09:25:19;;;;;;;40.08;22.42;;;5.50;99.90;;;;;;7610506;19;19926;-75
2023/10/17 09:27:54;;;;;;;40.13;22.52;;;5.50;99.90;;;;;;7605104;19;20018;-75
2023/10/17 09:30:26;;;;;;;36.80;21.33;;;5.50;99.90;;;;;;7593206;19;20033;-75
2023/10/17 09:32:59;;;;;;;39.63;22.00;;;5.40;99.90;;;;;;7610321;19;20098;-76
2023/10/17 09:35:35;;;;;;;38.10;20.98;;;5.50;99.90;;;;;;7600304;19;20078;-76
2023/10/17 09:38:07;;;;;;;40.88;23.35;;;5.60;99.90;;;;;;7604625;19;20011;-76
2023/10/17 09:40:40;;;;;;;47.65;25.33;;;5.60;99.90;;;;;;7605817;19;20023;-76
2023/10/17 09:43:20;;;;;;;37.65;21.33;;;5.60;99.90;;;;;;7595840;19;20328;-76
2023/10/17 09:46:04;;;;;;;41.70;23.65;;;5.60;99.90;;;;;;7602374;19;20051;-75
2023/10/17 09:48:41;;;;;;;40.45;23.77;;;5.70;99.90;;;;;;7590719;19;20015;-75
2023/10/17 09:51:22;;;;;;;40.22;22.05;;;5.60;99.90;;;;;;7585106;19;20015;-75
2023/10/17 09:53:58;;;;;;;38.08;21.98;;;5.60;99.90;;;;;;7580352;19;20049;-76
2023/10/17 09:56:38;;;;;;;39.45;21.20;;;5.70;99.90;;;;;;7597645;19;20027;-76
2023/10/17 09:59:16;;;;;;;37.25;21.45;;;5.70;99.90;;;;;;7596717;19;20106;-76
2023/10/17 10:01:49;;;;;;;35.63;19.95;;;5.60;99.90;;;;;;7598189;19;20011;-76
2023/10/17 10:04:21;;;;;;;;;;;5.70;99.90;;;;;;7599067;19;20019;-76
2023/10/17 10:07:22;;;;;;;33.17;19.73;;;5.80;99.90;;;;;;7604647;19;19922;-75
2023/10/17 10:09:54;;;;;;;32.97;20.58;;;5.70;99.90;;;;;;7602519;19;20045;-76
2023/10/17 10:13:13;;;;;;;33.97;19.75;;;5.80;99.90;;;;;;7593260;19;20026;-76
2023/10/17 10:15:50;;;;;;;36.03;21.65;;;5.90;99.90;;;;;;7600059;19;20018;-76
2023/10/17 10:18:35;;;;;;;36.13;20.42;;;6.00;99.90;;;;;;7607230;19;20019;-76
2023/10/17 10:21:07;;;;;;;34.33;19.73;;;6.00;99.90;;;;;;7601305;19;20019;-76
2023/10/17 10:23:41;;;;;;;30.40;18.02;;;6.10;99.90;;;;;;7592222;19;20014;-75
2023/10/17 10:26:19;;;;;;;35.25;20.77;;;6.10;99.90;;;;;;7587115;19;20796;-75
2023/10/17 10:28:51;;;;;;;34.13;19.70;;;6.10;99.90;;;;;;7586965;19;20110;-76
2023/10/17 10:31:24;;;;;;;36.08;19.95;;;6.30;99.90;;;;;;7609260;19;20533;-76
2023/10/17 10:34:00;;;;;;;;;;;6.30;99.90;;;;;;7608613;19;20022;-76
2023/10/17 10:36:35;;;;;;;30.30;17.20;;;6.40;99.90;;;;;;7607288;19;20295;-75
2023/10/17 10:39:18;;;;;;;34.97;21.08;;;6.40;99.90;;;;;;7602694;19;20010;-76
2023/10/17 10:41:59;;;;;;;31.83;19.10;;;6.30;99.90;;;;;;7594998;19;20374;-77
2023/10/17 10:44:42;;;;;;;33.63;18.85;;;6.30;99.90;;;;;;7593701;19;20018;-77
2023/10/17 10:47:14;;;;;;;34.25;20.27;;;6.40;99.90;;;;;;7579245;19;20109;-76
2023/10/17 10:49:49;;;;;;;37.20;20.05;;;6.50;99.90;;;;;;7592926;19;20007;-76
2023/10/17 10:52:24;;;;;;;33.58;20.95;;;6.60;99.90;;;;;;7595046;19;20010;-76
2023/10/17 10:54:59;;;;;;;34.83;20.25;;;6.60;99.90;;;;;;7586693;19;20390;-76
2023/10/17 10:57:34;;;;;;;33.08;19.45;;;6.70;99.90;;;;;;7569275;19;20010;-77
2023/10/17 11:00:08;;;;;;;32.60;18.80;;;6.80;99.90;;;;;;7572259;19;20098;-76
2023/10/17 11:02:43;;;;;;;30.33;18.45;;;6.90;99.90;;;;;;7570986;19;20018;-77
2023/10/17 11:05:15;;;;;;;33.15;19.83;;;7.10;99.90;;;;;;7597535;19;21259;-76
2023/10/17 11:07:58;;;;;;;31.95;19.20;;;7.30;99.90;;;;;;7583100;19;20007;-76
2023/10/17 11:10:31;;;;;;;30.00;18.15;;;7.50;99.90;;;;;;7586138;19;20014;-76
2023/10/17 11:13:04;;;;;;;32.58;18.80;;;7.60;99.90;;;;;;7578076;19;20067;-77
2023/10/17 11:15:43;;;;;;;31.73;19.42;;;7.80;99.90;;;;;;7539216;19;20015;-76
2023/10/17 11:18:19;;;;;;;30.42;18.13;;;7.90;99.90;;;;;;7573740;19;20014;-76
2023/10/17 11:20:55;;;;;;;28.15;17.48;;;8.00;99.90;;;;;;7570475;19;20022;-76
2023/10/17 11:23:29;;;;;;;29.70;18.42;;;8.10;99.90;;;;;;7595834;19;20022;-77
2023/10/17 11:26:04;;;;;;;34.33;18.70;;;8.10;99.90;;;;;;7583341;19;20060;-77
2023/10/17 11:28:58;;;;;;;29.88;18.10;;;8.10;99.90;;;;;;7580243;19;20154;-75
2023/10/17 11:31:31;;;;;;;30.63;18.17;;;8.20;99.90;;;;;;7602465;19;20503;-75
2023/10/17 11:34:12;;;;;;;;;;;8.30;99.90;;;;;;7613106;19;20042;-75
2023/10/17 11:36:52;;;;;;;26.92;17.25;;;8.30;99.90;;;;;;7607224;19;19926;-78
2023/10/17 11:39:26;;;;;;;29.25;17.67;;;8.40;99.90;;;;;;7598543;19;20484;-75
2023/10/17 11:41:59;;;;;;;31.00;17.88;;;8.60;99.90;;;;;;7585452;19;20014;-77
2023/10/17 11:44:32;;;;;;;34.07;18.43;;;8.70;99.90;;;;;;7568045;19;20055;-77
2023/10/17 11:47:20;;;;;;;26.42;16.27;;;8.90;99.90;;;;;;7571314;19;21755;-76
2023/10/17 11:49:54;;;;;;;24.75;15.40;;;9.10;99.90;;;;;;7572000;19;20026;-77
2023/10/17 11:52:27;;;;;;;28.30;17.95;;;9.10;99.90;;;;;;7557399;19;20021;-77
2023/10/17 11:55:11;;;;;;;28.37;17.23;;;9.20;99.90;;;;;;7556880;19;20019;-75
2023/10/17 11:57:50;;;;;;;29.42;17.58;;;9.30;99.90;;;;;;7561030;19;20729;-75
2023/10/17 12:00:28;;;;;;;28.27;16.98;;;9.60;99.90;;;;;;7554119;19;20078;-74
2023/10/17 12:03:00;;;;;;;25.98;16.30;;;9.80;99.90;;;;;;7545732;19;22880;-74
2023/10/17 12:05:38;;;;;;;23.23;15.65;;;9.70;99.90;;;;;;7555207;19;20602;-75
2023/10/17 12:08:10;;;;;;;24.95;15.55;;;9.80;99.90;;;;;;7564340;19;21039;-75
2023/10/17 12:10:43;;;;;;;25.23;16.10;;;9.80;99.90;;;;;;7599619;19;20374;-77
2023/10/17 12:13:17;;;;;;;25.25;15.80;;;9.60;99.90;;;;;;7583587;19;20527;-76
2023/10/17 12:15:50;;;;;;;25.00;15.23;;;9.60;99.90;;;;;;7570048;19;20011;-76
2023/10/17 12:18:24;;;;;;;23.90;15.18;;;9.50;99.90;;;;;;7564623;19;20563;-77
2023/10/17 12:21:01;;;;;;;26.17;15.80;;;9.50;99.90;;;;;;7579672;19;20063;-78
2023/10/17 12:23:33;;;;;;;28.75;14.85;;;9.40;99.90;;;;;;7582467;19;20556;-77
2023/10/17 12:26:13;;;;;;;26.67;14.70;;;9.40;99.90;;;;;;7573648;19;20482;-79
2023/10/17 12:28:46;;;;;;;27.88;16.08;;;9.40;99.90;;;;;;7563322;19;21802;-76
2023/10/17 12:31:18;;;;;;;23.48;14.35;;;9.50;99.90;;;;;;7558767;19;20014;-78
2023/10/17 12:33:50;;;;;;;28.55;15.43;;;9.60;99.90;;;;;;7578303;19;20010;-78
2023/10/17 12:36:24;;;;;;;23.85;14.85;;;9.70;99.90;;;;;;7587263;19;20029;-77
2023/10/17 12:38:57;;;;;;;27.75;15.15;;;9.60;99.90;;;;;;7591902;19;21121;-80
2023/10/17 12:41:30;;;;;;;22.05;14.77;;;9.60;99.90;;;;;;7595138;19;20117;-78
2023/10/17 12:44:03;;;;;;;24.77;14.00;;;9.60;99.90;;;;;;7589360;19;20010;-76
2023/10/17 12:46:35;;;;;;;23.48;13.73;;;9.60;99.90;;;;;;7586453;19;20015;-78
2023/10/17 12:49:10;;;;;;;21.83;13.57;;;9.60;99.90;;;;;;7582006;19;20369;-76
2023/10/17 12:51:43;;;;;;;19.05;13.05;;;9.50;99.90;;;;;;7587203;19;20023;-76
2023/10/17 12:54:16;;;;;;;23.10;15.00;;;9.50;99.90;;;;;;7573242;19;20110;-76
2023/10/17 12:56:48;;;;;;;21.95;14.77;;;9.40;99.90;;;;;;7561508;19;20354;-77
2023/10/17 12:59:21;;;;;;;23.20;14.57;;;9.40;99.90;;;;;;7575441;19;20042;-79
2023/10/17 13:01:54;;;;;;;21.70;13.88;;;9.20;99.90;;;;;;7561678;19;20065;-77
2023/10/17 13:04:27;;;;;;;23.33;14.90;;;9.20;99.90;;;;;;7568191;19;20018;-77
2023/10/17 13:07:00;;;;;;;26.40;16.00;;;9.20;99.90;;;;;;7569786;19;20090;-78
2023/10/17 13:09:33;;;;;;;21.77;14.80;;;9.20;99.90;;;;;;7568077;19;20975;-75
2023/10/17 13:12:06;;;;;;;24.17;14.43;;;9.30;99.90;;;;;;7559583;19;20275;-77
2023/10/17 13:14:38;;;;;;;23.65;14.07;;;9.30;99.90;;;;;;7545208;19;20014;-77
2023/10/17 13:17:12;;;;;;;22.23;13.88;;;9.30;99.90;;;;;;7557032;19;20015;-77
2023/10/17 13:19:48;;;;;;;19.27;13.77;;;9.40;99.90;;;;;;7563455;19;20045;-78
2023/10/17 13:22:21;;;;;;;20.00;14.30;;;9.40;99.90;;;;;;7555678;19;20017;-76
2023/10/17 13:24:55;;;;;;;;;;;9.40;99.90;;;;;;7548044;19;20021;-78
2023/10/17 13:27:27;;;;;;;28.08;15.63;;;9.40;99.90;;;;;;7515059;19;20005;-78
2023/10/17 13:30:00;;;;;;;27.23;16.48;;;9.40;99.90;;;;;;7494430;19;25773;-76
2023/10/17 13:32:33;;;;;;;22.25;14.35;;;9.40;99.90;;;;;;7547241;19;20520;-76
2023/10/17 13:35:06;;;;;;;26.75;15.57;;;9.40;99.90;;;;;;7529520;19;20051;-78
2023/10/17 13:37:51;;;;;;;24.90;15.48;;;9.50;99.90;;;;;;7543280;19;20627;-77
2023/10/17 13:40:24;;;;;;;21.67;14.80;;;9.50;99.90;;;;;;7524860;19;20018;-76
2023/10/17 13:42:58;;;;;;;28.40;16.75;;;9.50;99.90;;;;;;7510662;19;20017;-76
2023/10/17 13:45:39;;;;;;;25.17;15.90;;;9.50;99.90;;;;;;7526351;19;20002;-74
2023/10/17 13:48:12;;;;;;;25.15;15.73;;;9.50;99.90;;;;;;7511180;19;20061;-74
2023/10/17 13:50:45;;;;;;;24.45;16.42;;;9.50;99.90;;;;;;7518513;19;21459;-75
2023/10/17 13:53:17;;;;;;;24.92;15.73;;;9.40;99.90;;;;;;7511926;19;20521;-77
2023/10/17 13:55:50;;;;;;;23.48;16.30;;;9.50;99.90;;;;;;7514626;19;20125;-74
2023/10/17 13:58:22;;;;;;;23.37;16.40;;;9.50;99.90;;;;;;7511293;19;20055;-73
2023/10/17 14:00:55;;;;;;;23.73;16.15;;;9.50;99.90;;;;;;7550673;19;20488;-77
2023/10/17 14:03:27;;;;;;;28.42;16.52;;;9.60;99.90;;;;;;7541695;19;20015;-78
2023/10/17 14:06:00;;;;;;;23.80;14.18;;;9.50;99.90;;;;;;7539442;19;20018;-76
2023/10/17 14:08:36;;;;;;;21.20;14.50;;;9.50;99.90;;;;;;7549484;19;20017;-77
2023/10/17 14:11:17;;;;;;;20.55;14.23;;;9.50;99.90;;;;;;7554353;19;20030;-77
2023/10/17 14:13:50;;;;;;;24.10;14.40;;;9.50;99.90;;;;;;7554377;19;20446;-77
2023/10/17 14:16:22;;;;;;;25.17;14.90;;;9.50;99.90;;;;;;7547836;19;20681;-74
2023/10/17 14:19:04;;;;;;;20.52;13.02;;;9.50;99.90;;;;;;7534259;19;20623;-77
2023/10/17 14:21:40;;;;;;;18.88;12.77;;;9.50;99.90;;;;;;7523015;19;20572;-77
2023/10/17 14:24:27;;;;;;;23.42;13.50;;;9.60;99.90;;;;;;7541769;19;20018;-77
2023/10/17 14:27:00;;;;;;;18.55;13.25;;;9.70;99.90;;;;;;7535712;19;20025;-78
2023/10/17 14:29:34;;;;;;;17.50;12.97;;;9.80;99.90;;;;;;7547169;19;20088;-77
2023/10/17 14:32:07;;;;;;;19.73;12.90;;;9.80;99.90;;;;;;7544502;19;20208;-76
2023/10/17 14:34:42;;;;;;;22.50;13.38;;;9.80;99.90;;;;;;7551284;19;20047;-77
2023/10/17 14:37:15;;;;;;;20.52;12.82;;;9.70;99.90;;;;;;7547565;19;20026;-74
2023/10/17 14:39:49;;;;;;;20.15;12.93;;;9.70;99.90;;;;;;7563548;19;20006;-75
2023/10/17 14:42:22;;;;;;;20.57;13.57;;;9.60;99.90;;;;;;7567628;19;20025;-76
2023/10/17 14:44:55;;;;;;;20.08;12.73;;;9.50;99.90;;;;;;7558297;19;20340;-73
2023/10/17 14:47:27;;;;;;;20.63;13.97;;;9.50;99.90;;;;;;7552999;19;20019;-75
2023/10/17 14:50:00;;;;;;;18.88;12.68;;;9.40;99.90;;;;;;7556847;19;20018;-75
2023/10/17 14:52:34;;;;;;;18.90;12.82;;;9.40;99.90;;;;;;7537572;19;20049;-76
2023/10/17 14:55:14;;;;;;;22.25;14.00;;;9.40;99.90;;;;;;7562871;19;20889;-74
2023/10/17 14:57:47;;;;;;;20.85;12.98;;;9.40;99.90;;;;;;7562341;19;22063;-76
2023/10/17 15:00:20;;;;;;;19.23;12.98;;;9.40;99.90;;;;;;7560886;19;20060;-74
2023/10/17 15:02:53;;;;;;;20.30;13.38;;;9.30;99.90;;;;;;7561275;19;20022;-77
2023/10/17 15:05:26;;;;;;;21.38;15.10;;;9.20;99.90;;;;;;7575170;19;20022;-78
2023/10/17 15:07:58;;;;;;;25.10;15.52;;;9.20;99.90;;;;;;7567241;19;20010;-77
2023/10/17 15:10:31;;;;;;;22.92;13.77;;;9.20;99.90;;;;;;7565579;19;20062;-77
2023/10/17 15:13:08;;;;;;;19.23;13.23;;;9.20;99.90;;;;;;7555872;19;20018;-76
2023/10/17 15:15:41;;;;;;;22.50;15.00;;;9.20;99.90;;;;;;7566045;19;20022;-77
2023/10/17 15:18:14;;;;;;;19.83;13.55;;;9.20;99.90;;;;;;7557400;19;20135;-74
2023/10/17 15:20:46;;;;;;;21.77;13.40;;;9.20;99.90;;;;;;7558844;19;20592;-74